createdAt,value
2023-04-27T00:01:41.354Z,99.18
2023-04-27T00:05:09.359Z,99.26
2023-04-27T00:08:37.053Z,99.83
2023-04-27T00:12:04.790Z,99.77
2023-04-27T00:15:32.665Z,100.00
2023-04-27T00:19:00.588Z,100.00
2023-04-27T00:22:28.533Z,100.00
2023-04-27T00:25:56.400Z,100.00
2023-04-27T00:29:24.130Z,100.00
2023-04-27T00:32:52.071Z,100.00
2023-04-27T00:36:19.888Z,100.00
2023-04-27T00:39:47.753Z,100.00
2023-04-27T00:43:15.581Z,100.00
2023-04-27T00:46:43.463Z,100.00
2023-04-27T00:50:11.223Z,100.00
2023-04-27T00:53:39.105Z,100.00
2023-04-27T00:57:06.922Z,100.00
2023-04-27T01:00:16.641Z,100.00
2023-04-27T01:03:44.694Z,100.00
2023-04-27T01:06:56.533Z,100.00
2023-04-27T01:10:04.703Z,100.00
2023-04-27T01:13:13.452Z,100.00
2023-04-27T01:16:41.220Z,100.00
2023-04-27T01:20:08.888Z,100.00
2023-04-27T01:23:36.504Z,100.00
2023-04-27T01:27:04.345Z,100.00
2023-04-27T01:30:31.978Z,100.00
2023-04-27T01:33:59.886Z,100.00
2023-04-27T01:37:27.518Z,100.00
2023-04-27T01:40:55.379Z,100.00
2023-04-27T01:43:41.040Z,100.00
2023-04-27T01:46:49.904Z,100.00
2023-04-27T01:49:58.663Z,100.00
2023-04-27T01:53:07.468Z,100.00
2023-04-27T01:56:35.244Z,100.00
2023-04-27T02:00:03.438Z,100.00
2023-04-27T02:03:31.497Z,100.00
2023-04-27T02:06:59.360Z,100.00
2023-04-27T02:10:26.961Z,100.00
2023-04-27T02:13:55.233Z,100.00
2023-04-27T02:16:51.905Z,100.00
2023-04-27T02:20:00.853Z,100.00
2023-04-27T02:23:09.559Z,100.00
2023-04-27T02:26:37.498Z,100.00
2023-04-27T02:30:05.294Z,100.00
2023-04-27T02:33:33.031Z,100.00
2023-04-27T02:37:00.971Z,100.00
2023-04-27T02:40:29.036Z,100.00
2023-04-27T02:43:56.925Z,100.00
2023-04-27T02:47:24.820Z,100.00
2023-04-27T02:50:33.067Z,100.00
2023-04-27T02:54:00.913Z,100.00
2023-04-27T02:57:28.853Z,100.00
2023-04-27T03:00:56.724Z,100.00
2023-04-27T03:04:24.523Z,100.00
2023-04-27T03:07:36.329Z,100.00
2023-04-27T03:10:45.189Z,100.00
2023-04-27T03:14:13.055Z,100.00
2023-04-27T03:17:40.795Z,100.00
2023-04-27T03:21:08.503Z,100.00
2023-04-27T03:24:36.614Z,100.00
2023-04-27T03:27:48.156Z,100.00
2023-04-27T03:31:16.005Z,100.00
2023-04-27T03:34:43.681Z,100.00
2023-04-27T03:38:11.553Z,100.00
2023-04-27T03:41:23.390Z,100.00
2023-04-27T03:44:35.103Z,100.00
2023-04-27T03:48:02.845Z,100.00
2023-04-27T03:51:12.614Z,100.00
2023-04-27T03:54:20.784Z,100.00
2023-04-27T03:57:09.902Z,100.00
2023-04-27T04:00:38.805Z,100.00
2023-04-27T04:04:06.587Z,100.00
2023-04-27T04:07:17.999Z,100.00
2023-04-27T04:10:45.741Z,100.00
2023-04-27T04:13:36.025Z,100.00
2023-04-27T04:16:28.041Z,100.00
2023-04-27T04:19:55.619Z,100.00
2023-04-27T04:23:23.496Z,100.00
2023-04-27T04:26:51.213Z,100.00
2023-04-27T04:30:19.025Z,100.00
2023-04-27T04:33:27.915Z,100.00
2023-04-27T04:36:36.671Z,100.00
2023-04-27T04:40:05.241Z,100.00
2023-04-27T04:43:13.224Z,100.00
2023-04-27T04:46:40.787Z,100.00
2023-04-27T04:50:08.449Z,100.00
2023-04-27T04:53:36.269Z,100.00
2023-04-27T04:57:04.221Z,100.00
2023-04-27T05:00:32.976Z,100.00
2023-04-27T05:04:01.582Z,100.00
2023-04-27T05:07:09.575Z,100.00
2023-04-27T05:10:32.961Z,100.00
2023-04-27T05:14:04.119Z,100.00
2023-04-27T05:17:32.039Z,100.00
2023-04-27T05:20:59.901Z,100.00
2023-04-27T05:24:09.710Z,100.00
2023-04-27T05:27:37.715Z,100.00
2023-04-27T05:31:05.731Z,100.00
2023-04-27T05:34:33.674Z,100.00
2023-04-27T05:37:45.283Z,100.00
2023-04-27T05:41:13.134Z,100.00
2023-04-27T05:44:41.045Z,100.00
2023-04-27T05:47:56.215Z,100.00
2023-04-27T05:51:23.863Z,100.00
2023-04-27T05:54:51.749Z,100.00
2023-04-27T05:58:19.620Z,100.00
2023-04-27T06:01:27.948Z,99.30
2023-04-27T06:04:56.053Z,98.15
2023-04-27T06:08:23.812Z,97.42
2023-04-27T06:11:32.828Z,96.06
2023-04-27T06:15:00.683Z,91.19
2023-04-27T06:18:28.498Z,91.08
2023-04-27T06:21:56.299Z,91.61
2023-04-27T06:25:26.653Z,93.31
2023-04-27T06:28:51.858Z,95.23
2023-04-27T06:32:19.685Z,96.31
2023-04-27T06:35:29.380Z,96.97
2023-04-27T06:38:57.088Z,98.02
2023-04-27T06:42:24.730Z,98.21
2023-04-27T06:45:52.503Z,96.96
2023-04-27T06:49:20.228Z,93.92
2023-04-27T06:52:47.914Z,93.85
2023-04-27T06:56:15.860Z,90.50
2023-04-27T06:59:23.860Z,88.75
2023-04-27T07:02:32.641Z,87.69
2023-04-27T07:06:00.467Z,85.19
2023-04-27T07:08:50.203Z,83.81
2023-04-27T07:12:06.401Z,82.95
2023-04-27T07:15:16.135Z,81.83
2023-04-27T07:18:25.240Z,81.53
2023-04-27T07:21:35.008Z,80.98
2023-04-27T07:24:44.806Z,77.36
2023-04-27T07:27:53.642Z,75.92
2023-04-27T07:31:09.373Z,75.13
2023-04-27T07:34:18.161Z,74.31
2023-04-27T07:37:41.998Z,69.77
2023-04-27T07:40:31.438Z,68.90
2023-04-27T07:43:39.910Z,66.91
2023-04-27T07:47:08.102Z,68.42
2023-04-27T07:50:35.925Z,67.10
2023-04-27T07:54:03.523Z,65.79
2023-04-27T07:57:31.416Z,64.70
2023-04-27T08:00:59.087Z,63.58
2023-04-27T08:04:26.995Z,61.91
2023-04-27T08:07:54.898Z,58.99
2023-04-27T08:11:02.983Z,58.84
2023-04-27T08:14:18.789Z,60.12
2023-04-27T08:17:46.655Z,58.54
2023-04-27T08:21:14.372Z,56.89
2023-04-27T08:24:23.196Z,63.89
2023-04-27T08:27:28.139Z,66.46
2023-04-27T08:30:37.091Z,63.75
2023-04-27T08:33:45.641Z,65.37
2023-04-27T08:37:13.392Z,62.80
2023-04-27T08:40:22.058Z,61.72
2023-04-27T08:43:30.949Z,61.45
2023-04-27T08:46:58.874Z,55.62
2023-04-27T08:50:04.172Z,55.38
2023-04-27T08:53:32.010Z,51.98
2023-04-27T08:56:59.825Z,52.44
2023-04-27T09:00:27.862Z,49.97
2023-04-27T09:03:36.841Z,53.61
2023-04-27T09:06:26.490Z,49.17
2023-04-27T09:09:54.171Z,47.27
2023-04-27T09:13:22.029Z,45.24
2023-04-27T09:16:30.683Z,44.04
2023-04-27T09:19:39.644Z,42.86
2023-04-27T09:23:07.647Z,42.39
2023-04-27T09:26:35.418Z,40.75
2023-04-27T09:29:44.055Z,41.63
2023-04-27T09:33:11.890Z,40.14
2023-04-27T09:36:39.707Z,42.21
2023-04-27T09:39:48.318Z,42.25
2023-04-27T09:43:17.645Z,39.72
2023-04-27T09:46:45.997Z,39.51
2023-04-27T09:50:14.707Z,40.43
2023-04-27T09:53:42.364Z,40.09
2023-04-27T09:57:10.156Z,38.32
2023-04-27T10:00:38.024Z,38.63
2023-04-27T10:04:05.778Z,37.81
2023-04-27T10:07:33.356Z,37.35
2023-04-27T10:11:01.132Z,37.12
2023-04-27T10:14:16.831Z,36.60
2023-04-27T10:17:44.848Z,36.21
2023-04-27T10:20:35.728Z,36.24
2023-04-27T10:24:03.495Z,35.49
2023-04-27T10:27:31.638Z,36.60
2023-04-27T10:30:59.631Z,35.93
2023-04-27T10:34:27.471Z,35.71
2023-04-27T10:37:55.170Z,36.47
2023-04-27T10:40:47.014Z,35.82
2023-04-27T10:43:35.675Z,35.97
2023-04-27T10:46:45.980Z,36.05
2023-04-27T10:50:13.850Z,36.46
2023-04-27T10:53:30.221Z,36.72
2023-04-27T10:56:57.851Z,37.28
2023-04-27T11:00:25.862Z,36.90
2023-04-27T11:03:14.585Z,36.76
2023-04-27T11:06:23.112Z,35.66
2023-04-27T11:09:51.143Z,34.88
2023-04-27T11:13:17.099Z,34.98
2023-04-27T11:16:26.424Z,35.09
2023-04-27T11:19:34.987Z,35.84
2023-04-27T11:22:24.785Z,34.83
2023-04-27T11:25:52.566Z,33.64
2023-04-27T11:29:20.574Z,33.97
2023-04-27T11:32:48.774Z,33.97
2023-04-27T11:36:16.412Z,33.34
2023-04-27T11:38:49.957Z,33.50
2023-04-27T11:42:17.664Z,32.94
2023-04-27T11:45:28.041Z,33.06
2023-04-27T11:48:35.916Z,33.32
2023-04-27T11:52:03.536Z,33.40
2023-04-27T11:55:31.327Z,34.24
2023-04-27T11:59:00.169Z,34.86
2023-04-27T12:02:09.024Z,34.65
2023-04-27T12:05:17.746Z,33.97
2023-04-27T12:07:47.004Z,34.28
2023-04-27T12:10:54.935Z,33.84
2023-04-27T12:13:45.432Z,33.36
2023-04-27T12:17:13.602Z,33.79
2023-04-27T12:20:21.499Z,35.02
2023-04-27T12:23:49.331Z,34.99
2023-04-27T12:26:58.088Z,34.47
2023-04-27T12:29:47.473Z,33.96
2023-04-27T12:32:35.945Z,34.97
2023-04-27T12:35:24.573Z,35.54
2023-04-27T12:38:52.426Z,36.03
2023-04-27T12:42:20.449Z,36.60
2023-04-27T12:45:48.742Z,36.72
2023-04-27T12:48:57.388Z,36.68
2023-04-27T12:52:25.439Z,36.31
2023-04-27T12:55:34.638Z,36.45
2023-04-27T12:59:01.476Z,35.71
2023-04-27T13:02:25.822Z,35.26
2023-04-27T13:04:54.992Z,35.50
2023-04-27T13:08:03.668Z,35.33
2023-04-27T13:11:31.485Z,36.18
2023-04-27T13:14:40.848Z,35.99
2023-04-27T13:18:08.745Z,36.39
2023-04-27T13:21:17.605Z,35.64
2023-04-27T13:24:26.590Z,35.27
2023-04-27T13:27:16.557Z,35.02
2023-04-27T13:29:45.728Z,34.66
2023-04-27T13:32:16.673Z,34.19
2023-04-27T13:34:49.595Z,33.47
2023-04-27T13:37:58.768Z,33.19
2023-04-27T13:41:26.475Z,33.20
2023-04-27T13:44:54.387Z,34.69
2023-04-27T13:48:03.357Z,33.71
2023-04-27T13:51:01.289Z,33.96
2023-04-27T13:54:10.865Z,33.18
2023-04-27T13:57:38.546Z,33.65
2023-04-27T14:00:46.889Z,34.46
2023-04-27T14:03:55.282Z,34.89
2023-04-27T14:06:47.016Z,35.25
2023-04-27T14:10:14.677Z,34.95
2023-04-27T14:13:42.503Z,34.66
2023-04-27T14:17:10.395Z,36.02
2023-04-27T14:20:38.357Z,36.16
2023-04-27T14:23:29.929Z,35.68
2023-04-27T14:26:38.368Z,34.59
2023-04-27T14:30:06.133Z,32.60
2023-04-27T14:33:01.688Z,31.77
2023-04-27T14:36:18.800Z,29.94
2023-04-27T14:39:09.256Z,28.92
2023-04-27T14:42:17.049Z,27.95
2023-04-27T14:45:06.712Z,27.95
2023-04-27T14:47:56.495Z,28.74
2023-04-27T14:50:59.668Z,30.08
2023-04-27T14:53:30.720Z,30.60
2023-04-27T14:56:38.597Z,31.76
2023-04-27T14:59:16.523Z,32.03
2023-04-27T15:02:13.021Z,32.07
2023-04-27T15:05:40.776Z,32.20
2023-04-27T15:08:30.656Z,32.48
2023-04-27T15:11:16.777Z,32.90
2023-04-27T15:14:27.347Z,33.47
2023-04-27T15:17:17.494Z,34.22
2023-04-27T15:20:45.279Z,34.87
2023-04-27T15:23:53.539Z,35.63
2023-04-27T15:27:02.413Z,35.64
2023-04-27T15:30:26.697Z,34.75
2023-04-27T15:33:54.447Z,32.49
2023-04-27T15:37:03.187Z,31.69
2023-04-27T15:40:12.108Z,29.94
2023-04-27T15:43:00.970Z,29.13
2023-04-27T15:46:29.705Z,27.48
2023-04-27T15:49:53.601Z,27.58
2023-04-27T15:52:32.182Z,27.70
2023-04-27T15:55:02.312Z,29.12
2023-04-27T15:57:37.389Z,29.97
2023-04-27T16:00:30.994Z,31.21
2023-04-27T16:03:58.764Z,30.35
2023-04-27T16:06:49.323Z,28.88
2023-04-27T16:09:37.547Z,28.16
2023-04-27T16:12:22.153Z,27.29
2023-04-27T16:15:38.600Z,26.52
2023-04-27T16:18:29.760Z,26.71
2023-04-27T16:21:28.697Z,26.87
2023-04-27T16:24:52.341Z,26.87
2023-04-27T16:27:57.997Z,26.97
2023-04-27T16:30:34.164Z,27.28
2023-04-27T16:33:42.759Z,27.44
2023-04-27T16:36:53.417Z,27.79
2023-04-27T16:39:22.772Z,27.89
2023-04-27T16:42:11.173Z,28.96
2023-04-27T16:45:21.108Z,29.84
2023-04-27T16:48:09.326Z,29.93
2023-04-27T16:51:19.107Z,30.46
2023-04-27T16:54:09.577Z,30.29
2023-04-27T16:57:37.253Z,29.98
2023-04-27T17:00:07.422Z,30.67
2023-04-27T17:03:24.382Z,32.38
2023-04-27T17:06:36.503Z,33.38
2023-04-27T17:09:59.839Z,35.45
2023-04-27T17:13:27.548Z,37.59
2023-04-27T17:16:43.250Z,38.86
2023-04-27T17:20:11.111Z,40.85
2023-04-27T17:23:38.888Z,42.11
2023-04-27T17:27:06.633Z,43.87
2023-04-27T17:30:22.121Z,45.12
2023-04-27T17:33:11.410Z,46.49
2023-04-27T17:36:39.161Z,47.70
2023-04-27T17:39:32.470Z,48.61
2023-04-27T17:42:08.996Z,49.55
2023-04-27T17:44:58.705Z,50.13
2023-04-27T17:48:26.749Z,51.19
2023-04-27T17:51:54.590Z,52.04
2023-04-27T17:54:52.673Z,52.43
2023-04-27T17:58:20.456Z,53.43
2023-04-27T18:01:32.668Z,53.85
2023-04-27T18:05:00.390Z,54.36
2023-04-27T18:08:28.198Z,55.87
2023-04-27T18:11:55.932Z,55.12
2023-04-27T18:15:23.868Z,56.43
2023-04-27T18:18:51.600Z,57.00
2023-04-27T18:22:19.476Z,57.53
2023-04-27T18:25:27.336Z,58.22
2023-04-27T18:28:36.046Z,58.06
2023-04-27T18:31:45.018Z,58.74
2023-04-27T18:34:38.668Z,58.36
2023-04-27T18:37:50.705Z,58.51
2023-04-27T18:40:22.047Z,58.21
2023-04-27T18:43:18.653Z,59.70
2023-04-27T18:46:27.810Z,58.05
2023-04-27T18:49:17.687Z,58.48
2023-04-27T18:52:40.917Z,59.25
2023-04-27T18:55:56.732Z,60.31
2023-04-27T18:59:24.398Z,59.59
2023-04-27T19:02:34.150Z,59.90
2023-04-27T19:06:01.976Z,60.55
2023-04-27T19:08:52.688Z,60.14
2023-04-27T19:12:20.397Z,59.54
2023-04-27T19:15:48.203Z,59.72
2023-04-27T19:19:16.276Z,59.45
2023-04-27T19:22:31.747Z,59.65
2023-04-27T19:26:09.596Z,59.38
2023-04-27T19:29:27.144Z,59.79
2023-04-27T19:32:34.882Z,58.86
2023-04-27T19:36:02.704Z,59.08
2023-04-27T19:39:31.363Z,58.78
2023-04-27T19:42:54.316Z,58.78
2023-04-27T19:46:18.581Z,58.38
2023-04-27T19:49:46.414Z,58.11
2023-04-27T19:53:14.310Z,58.21
2023-04-27T19:56:33.622Z,58.05
2023-04-27T19:59:45.097Z,58.71
2023-04-27T20:02:54.163Z,58.73
2023-04-27T20:06:03.023Z,58.94
2023-04-27T20:09:11.574Z,58.94
2023-04-27T20:12:54.457Z,58.92
2023-04-27T20:16:06.954Z,59.33
2023-04-27T20:19:34.778Z,59.25
2023-04-27T20:22:25.719Z,59.36
2023-04-27T20:25:35.433Z,59.51
2023-04-27T20:28:44.315Z,59.81
2023-04-27T20:32:09.949Z,59.89
2023-04-27T20:35:06.832Z,59.68
2023-04-27T20:38:34.737Z,60.42
2023-04-27T20:42:02.615Z,61.44
2023-04-27T20:45:18.205Z,61.59
2023-04-27T20:48:46.093Z,61.74
2023-04-27T20:52:10.351Z,62.45
2023-04-27T20:55:38.157Z,62.93
2023-04-27T20:59:07.311Z,63.00
2023-04-27T21:02:02.308Z,63.18
2023-04-27T21:05:31.651Z,63.84
2023-04-27T21:08:57.712Z,64.43
2023-04-27T21:12:06.682Z,64.28
2023-04-27T21:15:15.331Z,64.71
2023-04-27T21:21:47.573Z,65.55
2023-04-27T21:24:59.470Z,66.28
2023-04-27T21:28:09.216Z,66.25
2023-04-27T21:31:37.160Z,67.48
2023-04-27T21:34:46.833Z,66.78
2023-04-27T21:38:14.620Z,67.09
2023-04-27T21:41:26.203Z,67.29
2023-04-27T21:44:37.923Z,68.18
2023-04-27T21:47:35.738Z,68.70
2023-04-27T21:50:51.028Z,68.85
2023-04-27T21:54:00.916Z,69.67
2023-04-27T21:57:28.851Z,69.52
2023-04-27T22:00:38.600Z,69.01
2023-04-27T22:03:47.596Z,70.14
2023-04-27T22:06:57.163Z,69.33
2023-04-27T22:10:25.464Z,70.16
2023-04-27T22:13:34.094Z,70.34
2023-04-27T22:17:02.724Z,70.05
2023-04-27T22:20:17.082Z,70.18
2023-04-27T22:23:45.389Z,69.94
2023-04-27T22:27:13.336Z,70.36
2023-04-27T22:30:23.025Z,70.69
2023-04-27T22:33:50.948Z,71.39
2023-04-27T22:37:07.146Z,70.89
2023-04-27T22:40:15.563Z,71.39
2023-04-27T22:46:56.785Z,71.65
2023-04-27T22:49:46.884Z,72.87
2023-04-27T22:52:58.515Z,73.84
2023-04-27T22:56:10.866Z,74.23
2023-04-27T22:59:39.160Z,73.56
2023-04-27T23:03:07.568Z,73.64
2023-04-27T23:06:35.577Z,73.26
2023-04-27T23:10:03.219Z,73.77
2023-04-27T23:13:11.703Z,73.52
2023-04-27T23:16:35.925Z,74.18
2023-04-27T23:20:04.153Z,75.12
2023-04-27T23:23:31.380Z,75.56
2023-04-27T23:26:54.799Z,77.13
2023-04-27T23:30:22.887Z,77.35
2023-04-27T23:33:50.493Z,77.82
2023-04-27T23:37:18.623Z,78.00
2023-04-27T23:40:46.316Z,79.57
2023-04-27T23:44:10.221Z,81.82
2023-04-27T23:47:08.979Z,80.46
2023-04-27T23:50:18.843Z,80.77
2023-04-27T23:53:46.459Z,83.68
2023-04-27T23:57:14.263Z,83.01
